createdAt,value
2023-04-23T00:01:25.836Z,32.53
2023-04-23T00:03:54.140Z,32.87
2023-04-23T00:06:23.672Z,32.59
2023-04-23T00:08:52.474Z,32.88
2023-04-23T00:11:21.269Z,32.55
2023-04-23T00:13:49.855Z,32.98
2023-04-23T00:16:19.742Z,32.69
2023-04-23T00:18:47.846Z,32.76
2023-04-23T00:21:15.867Z,32.90
2023-04-23T00:23:45.412Z,32.67
2023-04-23T00:26:13.436Z,32.72
2023-04-23T00:28:41.364Z,32.73
2023-04-23T00:31:09.357Z,33.03
2023-04-23T00:33:37.490Z,32.99
2023-04-23T00:36:05.777Z,32.71
2023-04-23T00:38:33.784Z,32.99
2023-04-23T00:41:03.148Z,32.68
2023-04-23T00:43:31.149Z,32.89
2023-04-23T00:45:59.207Z,32.95
2023-04-23T00:48:27.210Z,32.96
2023-04-23T00:51:00.426Z,32.82
2023-04-23T00:53:28.366Z,32.63
2023-04-23T00:55:56.359Z,33.03
2023-04-23T00:58:25.722Z,32.72
2023-04-23T01:00:53.718Z,32.79
2023-04-23T01:03:22.855Z,33.07
2023-04-23T01:05:50.958Z,33.11
2023-04-23T01:08:19.261Z,32.72
2023-04-23T01:10:47.273Z,33.15
2023-04-23T01:13:15.598Z,32.94
2023-04-23T01:15:45.373Z,32.89
2023-04-23T01:18:13.759Z,32.88
2023-04-23T01:20:43.296Z,33.14
2023-04-23T01:23:12.873Z,33.02
2023-04-23T01:25:40.819Z,33.20
2023-04-23T01:28:08.673Z,33.21
2023-04-23T01:30:36.786Z,33.25
2023-04-23T01:33:04.933Z,33.23
2023-04-23T01:35:33.346Z,32.92
2023-04-23T01:38:01.652Z,32.90
2023-04-23T01:40:31.015Z,33.18
2023-04-23T01:42:58.933Z,33.02
2023-04-23T01:45:26.924Z,33.22
2023-04-23T01:47:54.981Z,33.31
2023-04-23T01:50:24.587Z,33.27
2023-04-23T01:52:52.563Z,33.13
2023-04-23T01:55:20.884Z,33.37
2023-04-23T01:57:51.246Z,33.29
2023-04-23T02:00:20.732Z,33.21
2023-04-23T02:02:49.081Z,33.17
2023-04-23T02:05:18.614Z,33.06
2023-04-23T02:07:46.807Z,33.13
2023-04-23T02:10:14.904Z,33.33
2023-04-23T02:12:42.876Z,33.43
2023-04-23T02:15:12.581Z,33.37
2023-04-23T02:17:40.811Z,33.08
2023-04-23T02:20:09.816Z,33.25
2023-04-23T02:22:38.029Z,33.29
2023-04-23T02:25:07.134Z,33.24
2023-04-23T02:27:35.119Z,33.51
2023-04-23T02:30:03.654Z,33.40
2023-04-23T02:32:33.079Z,33.55
2023-04-23T02:35:02.181Z,33.22
2023-04-23T02:37:30.142Z,33.64
2023-04-23T02:39:58.078Z,33.62
2023-04-23T02:42:26.095Z,33.38
2023-04-23T02:44:54.114Z,33.39
2023-04-23T02:47:22.128Z,33.38
2023-04-23T02:49:51.603Z,33.65
2023-04-23T02:52:19.509Z,33.55
2023-04-23T02:54:47.498Z,33.61
2023-04-23T02:57:16.552Z,33.39
2023-04-23T02:59:44.648Z,33.39
2023-04-23T03:02:12.771Z,33.59
2023-04-23T03:04:41.487Z,33.57
2023-04-23T03:07:13.396Z,33.58
2023-04-23T03:09:42.363Z,33.54
2023-04-23T03:12:10.313Z,33.48
2023-04-23T03:14:38.300Z,33.42
2023-04-23T03:17:06.481Z,33.76
2023-04-23T03:19:34.445Z,33.63
2023-04-23T03:22:05.579Z,33.57
2023-04-23T03:24:35.476Z,33.73
2023-04-23T03:27:03.405Z,33.92
2023-04-23T03:29:31.368Z,33.62
2023-04-23T03:31:59.347Z,33.95
2023-04-23T03:34:27.321Z,33.95
2023-04-23T03:36:55.391Z,33.93
2023-04-23T03:39:23.446Z,33.83
2023-04-23T03:41:52.877Z,33.95
2023-04-23T03:44:21.319Z,33.77
2023-04-23T03:46:49.259Z,33.95
2023-04-23T03:49:17.215Z,34.05
2023-04-23T03:51:45.192Z,33.99
2023-04-23T03:54:13.153Z,33.64
2023-04-23T03:56:41.182Z,33.79
2023-04-23T03:59:10.785Z,33.77
2023-04-23T04:01:38.749Z,33.60
2023-04-23T04:04:06.865Z,33.97
2023-04-23T04:06:35.044Z,33.86
2023-04-23T04:09:02.956Z,33.52
2023-04-23T04:11:30.900Z,33.54
2023-04-23T04:13:58.905Z,33.59
2023-04-23T04:16:28.296Z,33.63
2023-04-23T04:18:56.710Z,33.95
2023-04-23T04:21:24.787Z,33.76
2023-04-23T04:23:53.694Z,34.07
2023-04-23T04:26:21.650Z,33.96
2023-04-23T04:28:49.690Z,33.92
2023-04-23T04:31:17.962Z,34.12
2023-04-23T04:33:47.444Z,33.82
2023-04-23T04:36:15.680Z,34.01
2023-04-23T04:38:44.049Z,33.68
2023-04-23T04:41:13.298Z,34.07
2023-04-23T04:43:43.729Z,33.66
2023-04-23T04:46:12.252Z,33.75
2023-04-23T04:48:40.239Z,33.92
2023-04-23T04:51:09.752Z,33.94
2023-04-23T04:53:37.689Z,33.82
2023-04-23T04:56:06.058Z,33.67
2023-04-23T04:58:33.955Z,33.87
2023-04-23T05:01:02.103Z,33.81
2023-04-23T05:03:30.349Z,33.75
2023-04-23T05:05:59.379Z,33.47
2023-04-23T05:08:28.814Z,33.66
2023-04-23T05:10:56.847Z,33.49
2023-04-23T05:13:24.868Z,33.54
2023-04-23T05:15:52.801Z,33.92
2023-04-23T05:18:21.215Z,33.95
2023-04-23T05:20:49.221Z,33.64
2023-04-23T05:23:17.319Z,33.88
2023-04-23T05:25:46.766Z,34.00
2023-04-23T05:28:15.510Z,33.96
2023-04-23T05:30:43.537Z,33.86
2023-04-23T05:33:12.570Z,33.69
2023-04-23T05:35:40.711Z,33.95
2023-04-23T05:38:08.671Z,33.73
2023-04-23T05:40:36.689Z,33.80
2023-04-23T05:43:06.148Z,33.90
2023-04-23T05:45:34.121Z,33.93
2023-04-23T05:48:02.193Z,33.86
2023-04-23T05:50:30.308Z,33.71
2023-04-23T05:52:58.239Z,33.96
2023-04-23T05:55:26.270Z,33.65
2023-04-23T05:57:54.306Z,33.72
2023-04-23T06:00:23.731Z,33.58
2023-04-23T06:02:52.060Z,33.55
2023-04-23T06:05:20.257Z,33.91
2023-04-23T06:07:48.484Z,33.68
2023-04-23T06:10:16.483Z,33.68
2023-04-23T06:12:44.419Z,33.58
2023-04-23T06:15:12.705Z,33.80
2023-04-23T06:17:42.143Z,33.82
2023-04-23T06:20:12.000Z,33.95
2023-04-23T06:22:40.100Z,33.61
2023-04-23T06:25:08.779Z,33.82
2023-04-23T06:27:36.761Z,33.68
2023-04-23T06:30:05.344Z,33.82
2023-04-23T06:32:33.434Z,33.96
2023-04-23T06:35:02.979Z,34.03
2023-04-23T06:37:32.405Z,33.69
2023-04-23T06:40:00.449Z,33.97
2023-04-23T06:42:28.458Z,34.12
2023-04-23T06:44:56.580Z,33.75
2023-04-23T06:47:24.604Z,33.93
2023-04-23T06:49:52.628Z,34.07
2023-04-23T06:52:21.991Z,34.13
2023-04-23T06:54:50.236Z,33.97
2023-04-23T06:57:18.358Z,34.01
2023-04-23T06:59:46.337Z,34.11
2023-04-23T07:02:14.390Z,34.21
2023-04-23T07:04:42.588Z,34.01
2023-04-23T07:07:10.819Z,34.27
2023-04-23T07:09:40.380Z,34.03
2023-04-23T07:12:09.094Z,34.08
2023-04-23T07:14:37.080Z,34.24
2023-04-23T07:17:05.069Z,34.17
2023-04-23T07:19:33.040Z,34.11
2023-04-23T07:22:01.111Z,34.56
2023-04-23T07:24:29.055Z,34.32
2023-04-23T07:26:59.237Z,34.19
2023-04-23T07:29:27.254Z,34.57
2023-04-23T07:31:55.384Z,34.56
2023-04-23T07:34:23.403Z,34.51
2023-04-23T07:36:52.213Z,34.23
2023-04-23T07:39:20.170Z,34.71
2023-04-23T07:41:48.192Z,34.54
2023-04-23T07:44:17.612Z,34.73
2023-04-23T07:46:45.627Z,34.68
2023-04-23T07:49:13.648Z,34.18
2023-04-23T07:51:41.743Z,34.28
2023-04-23T07:54:09.817Z,34.51
2023-04-23T07:56:37.852Z,34.26
2023-04-23T07:59:06.068Z,34.46
2023-04-23T08:01:35.435Z,34.35
2023-04-23T08:04:04.009Z,34.34
2023-04-23T08:06:35.158Z,34.60
2023-04-23T08:09:06.386Z,34.42
2023-04-23T08:11:34.466Z,34.50
2023-04-23T08:14:02.725Z,34.32
2023-04-23T08:16:31.270Z,34.26
2023-04-23T08:21:32.632Z,34.32
2023-04-23T08:24:01.508Z,34.11
2023-04-23T08:26:29.506Z,34.22
2023-04-23T08:28:57.639Z,34.23
2023-04-23T08:31:27.231Z,33.88
2023-04-23T08:33:55.558Z,33.91
2023-04-23T08:36:25.591Z,34.19
2023-04-23T08:38:53.640Z,34.29
2023-04-23T08:41:23.792Z,33.97
2023-04-23T08:43:53.143Z,34.15
2023-04-23T08:46:21.217Z,34.32
2023-04-23T08:48:49.308Z,34.35
2023-04-23T08:51:19.259Z,34.44
2023-04-23T08:53:49.270Z,34.21
2023-04-23T08:56:17.281Z,34.40
2023-04-23T08:58:45.349Z,34.29
2023-04-23T09:01:13.247Z,34.26
2023-04-23T09:03:41.365Z,34.04
2023-04-23T09:06:09.553Z,34.41
2023-04-23T09:08:37.591Z,34.01
2023-04-23T09:11:07.171Z,34.04
2023-04-23T09:13:35.262Z,33.94
2023-04-23T09:16:03.293Z,34.21
2023-04-23T09:18:31.253Z,34.17
2023-04-23T09:20:59.196Z,34.13
2023-04-23T09:23:27.231Z,34.19
2023-04-23T09:25:55.184Z,33.95
2023-04-23T09:28:27.049Z,34.00
2023-04-23T09:30:54.961Z,34.23
2023-04-23T09:33:23.041Z,34.27
2023-04-23T09:35:52.230Z,33.96
2023-04-23T09:38:20.889Z,34.10
2023-04-23T09:40:48.965Z,33.77
2023-04-23T09:43:16.990Z,34.00
2023-04-23T09:45:52.580Z,33.92
2023-04-23T09:48:20.650Z,33.71
2023-04-23T09:50:48.689Z,33.84
2023-04-23T09:53:16.704Z,33.78
2023-04-23T09:55:44.961Z,33.48
2023-04-23T09:58:13.591Z,33.75
2023-04-23T10:00:41.620Z,33.67
2023-04-23T10:03:12.049Z,33.61
2023-04-23T10:08:13.411Z,33.78
2023-04-23T10:10:55.172Z,34.69
2023-04-23T10:13:29.369Z,34.34
2023-04-23T10:16:07.249Z,34.20
2023-04-23T10:18:43.469Z,33.74
2023-04-23T10:21:11.404Z,33.58
2023-04-23T10:23:39.380Z,33.50
2023-04-23T10:26:07.646Z,33.41
2023-04-23T10:28:35.605Z,32.93
2023-04-23T10:31:04.030Z,33.21
2023-04-23T10:33:39.940Z,32.57
2023-04-23T10:36:15.279Z,32.62
2023-04-23T10:38:51.344Z,32.56
2023-04-23T10:41:26.687Z,32.55
2023-04-23T10:43:54.673Z,32.49
2023-04-23T10:46:31.878Z,32.55
2023-04-23T10:49:09.955Z,32.89
2023-04-23T10:54:11.221Z,33.02
2023-04-23T10:56:40.120Z,32.92
2023-04-23T10:59:09.315Z,32.61
2023-04-23T11:01:37.307Z,32.26
2023-04-23T11:04:24.459Z,32.22
2023-04-23T11:06:56.458Z,32.45
2023-04-23T11:09:40.964Z,32.22
2023-04-23T11:12:10.604Z,32.17
2023-04-23T11:14:42.988Z,32.50
2023-04-23T11:17:12.766Z,32.43
2023-04-23T11:19:41.310Z,32.08
2023-04-23T11:22:14.689Z,32.41
2023-04-23T11:24:45.119Z,32.09
2023-04-23T11:27:13.665Z,32.26
2023-04-23T11:29:42.926Z,32.14
2023-04-23T11:32:13.083Z,32.09
2023-04-23T11:34:41.921Z,32.29
2023-04-23T11:37:11.301Z,32.09
2023-04-23T11:39:42.240Z,31.99
2023-04-23T11:42:11.485Z,32.15
2023-04-23T11:44:39.762Z,31.85
2023-04-23T11:47:08.430Z,31.87
2023-04-23T11:49:37.880Z,31.74
2023-04-23T11:52:05.971Z,32.14
2023-04-23T11:54:34.483Z,31.90
2023-04-23T11:57:04.570Z,32.04
2023-04-23T11:59:32.806Z,31.86
2023-04-23T12:02:01.115Z,32.03
2023-04-23T12:04:29.745Z,31.72
2023-04-23T12:06:58.383Z,31.88
2023-04-23T12:09:27.456Z,32.04
2023-04-23T12:11:55.687Z,32.09
2023-04-23T12:14:29.526Z,31.86
2023-04-23T12:16:57.877Z,31.67
2023-04-23T12:19:28.329Z,31.90
2023-04-23T12:21:57.048Z,31.84
2023-04-23T12:24:26.282Z,32.63
2023-04-23T12:26:56.063Z,33.33
2023-04-23T12:29:24.293Z,33.82
2023-04-23T12:31:54.081Z,34.13
2023-04-23T12:34:22.270Z,34.76
2023-04-23T12:36:51.152Z,34.87
2023-04-23T12:39:29.515Z,34.73
2023-04-23T12:42:00.010Z,34.41
2023-04-23T12:44:28.034Z,34.53
2023-04-23T12:46:58.215Z,33.97
2023-04-23T12:49:27.217Z,33.97
2023-04-23T12:51:57.670Z,33.78
2023-04-23T12:54:26.783Z,33.71
2023-04-23T12:56:54.886Z,33.73
2023-04-23T12:59:22.848Z,33.86
2023-04-23T13:01:51.705Z,33.75
2023-04-23T13:04:21.381Z,33.59
2023-04-23T13:06:49.427Z,33.71
2023-04-23T13:09:17.566Z,33.57
2023-04-23T13:11:47.010Z,33.49
2023-04-23T13:14:15.081Z,33.61
2023-04-23T13:16:43.216Z,33.55
2023-04-23T13:19:13.078Z,33.38
2023-04-23T13:21:42.545Z,33.21
2023-04-23T13:24:10.916Z,34.02
2023-04-23T13:26:39.094Z,34.74
2023-04-23T13:29:07.221Z,34.70
2023-04-23T13:31:35.266Z,34.42
2023-04-23T13:34:03.874Z,34.55
2023-04-23T13:36:31.972Z,34.05
2023-04-23T13:39:01.335Z,37.18
2023-04-23T13:41:29.308Z,36.49
2023-04-23T13:43:57.216Z,37.08
2023-04-23T13:46:27.650Z,35.76
2023-04-23T13:48:57.852Z,37.02
2023-04-23T13:51:34.880Z,36.82
2023-04-23T13:54:05.780Z,37.42
2023-04-23T13:56:33.689Z,38.54
2023-04-23T13:59:18.427Z,37.35
2023-04-23T14:01:50.017Z,38.71
2023-04-23T14:04:18.614Z,38.97
2023-04-23T14:06:46.709Z,39.09
2023-04-23T14:09:16.115Z,37.88
2023-04-23T14:11:44.349Z,39.87
2023-04-23T14:14:12.276Z,39.91
2023-04-23T14:16:40.313Z,39.50
2023-04-23T14:19:08.300Z,39.75
2023-04-23T14:21:36.500Z,40.01
2023-04-23T14:24:09.736Z,41.34
2023-04-23T14:26:48.819Z,40.40
2023-04-23T14:29:24.294Z,40.36
2023-04-23T14:31:51.983Z,40.48
2023-04-23T14:34:20.064Z,39.33
2023-04-23T14:36:49.230Z,39.75
2023-04-23T14:39:17.674Z,39.87
2023-04-23T14:41:47.200Z,39.52
2023-04-23T14:44:15.237Z,39.31
2023-04-23T14:46:43.210Z,38.53
2023-04-23T14:49:11.667Z,39.34
2023-04-23T14:51:39.897Z,38.87
2023-04-23T14:54:07.949Z,38.63
2023-04-23T14:56:37.224Z,38.66
2023-04-23T14:59:06.592Z,37.65
2023-04-23T15:01:34.637Z,38.53
2023-04-23T15:04:02.697Z,37.73
2023-04-23T15:06:30.915Z,37.58
2023-04-23T15:08:58.866Z,36.97
2023-04-23T15:11:26.859Z,37.70
2023-04-23T15:13:57.937Z,37.60
2023-04-23T15:16:46.891Z,38.09
2023-04-23T15:19:18.079Z,37.03
2023-04-23T15:21:46.504Z,36.56
2023-04-23T15:24:14.508Z,37.27
2023-04-23T15:26:42.524Z,37.02
2023-04-23T15:29:10.682Z,37.18
2023-04-23T15:31:40.195Z,37.00
2023-04-23T15:34:09.701Z,36.93
2023-04-23T15:36:39.368Z,37.49
2023-04-23T15:39:07.725Z,37.10
2023-04-23T15:41:39.398Z,36.80
2023-04-23T15:44:10.954Z,36.29
2023-04-23T15:46:40.734Z,36.43
2023-04-23T15:49:08.952Z,37.14
2023-04-23T15:51:37.002Z,36.90
2023-04-23T15:54:08.038Z,36.74
2023-04-23T15:56:36.712Z,36.51
2023-04-23T15:59:04.680Z,36.07
2023-04-23T16:01:32.738Z,36.33
2023-04-23T16:04:10.262Z,36.30
2023-04-23T16:06:39.385Z,36.44
2023-04-23T16:09:08.494Z,36.43
2023-04-23T16:11:36.958Z,36.39
2023-04-23T16:14:05.058Z,36.64
2023-04-23T16:16:33.078Z,36.55
2023-04-23T16:19:03.320Z,35.89
2023-04-23T16:21:32.044Z,35.97
2023-04-23T16:24:00.171Z,35.62
2023-04-23T16:26:29.025Z,36.04
2023-04-23T16:29:16.561Z,35.62
2023-04-23T16:31:45.362Z,36.11
2023-04-23T16:34:14.784Z,36.31
2023-04-23T16:36:43.022Z,35.67
2023-04-23T16:39:11.464Z,35.26
2023-04-23T16:41:39.637Z,35.48
2023-04-23T16:44:07.712Z,35.41
2023-04-23T16:46:35.755Z,35.50
2023-04-23T16:49:03.757Z,35.38
2023-04-23T16:51:33.242Z,35.49
2023-04-23T16:54:01.236Z,35.86
2023-04-23T16:56:29.267Z,35.62
2023-04-23T16:58:57.841Z,35.35
2023-04-23T17:01:25.900Z,35.13
2023-04-23T17:03:54.131Z,35.26
2023-04-23T17:06:27.139Z,35.36
2023-04-23T17:08:57.737Z,35.09
2023-04-23T17:11:25.899Z,35.60
2023-04-23T17:13:54.058Z,35.14
2023-04-23T17:16:22.035Z,35.11
2023-04-23T17:18:50.163Z,35.29
2023-04-23T17:21:18.196Z,35.13
2023-04-23T17:23:46.459Z,35.11
2023-04-23T17:26:15.826Z,35.10
2023-04-23T17:28:43.767Z,34.78
2023-04-23T17:31:11.795Z,34.70
2023-04-23T17:33:39.876Z,35.06
2023-04-23T17:36:07.901Z,34.81
2023-04-23T17:38:35.912Z,34.67
2023-04-23T17:41:04.064Z,34.99
2023-04-23T17:43:35.070Z,34.79
2023-04-23T17:46:03.420Z,34.97
2023-04-23T17:48:31.527Z,34.95
2023-04-23T17:50:59.518Z,34.63
2023-04-23T17:53:27.570Z,34.56
2023-04-23T17:55:59.618Z,34.49
2023-04-23T17:58:27.617Z,34.85
2023-04-23T18:00:57.242Z,34.71
2023-04-23T18:03:26.716Z,34.70
2023-04-23T18:05:55.216Z,34.38
2023-04-23T18:08:23.223Z,34.26
2023-04-23T18:10:51.313Z,34.59
2023-04-23T18:13:19.323Z,34.12
2023-04-23T18:15:49.986Z,34.17
2023-04-23T18:18:21.613Z,34.18
2023-04-23T18:20:52.185Z,34.34
2023-04-23T18:23:22.189Z,34.34
2023-04-23T18:25:50.329Z,34.01
2023-04-23T18:28:18.318Z,34.09
2023-04-23T18:30:46.331Z,34.04
2023-04-23T18:33:26.813Z,34.00
2023-04-23T18:35:58.470Z,33.89
2023-04-23T18:38:27.009Z,33.99
2023-04-23T18:40:55.177Z,33.78
2023-04-23T18:43:23.177Z,34.09
2023-04-23T18:45:51.431Z,33.80
2023-04-23T18:48:42.234Z,33.71
2023-04-23T18:51:21.375Z,33.99
2023-04-23T18:53:49.573Z,33.78
2023-04-23T18:56:17.659Z,33.79
2023-04-23T18:58:45.691Z,33.77
2023-04-23T19:01:13.754Z,33.87
2023-04-23T19:03:43.288Z,33.82
2023-04-23T19:06:11.330Z,33.84
2023-04-23T19:08:39.380Z,33.71
2023-04-23T19:11:08.802Z,33.60
2023-04-23T19:13:36.847Z,33.62
2023-04-23T19:16:05.038Z,33.72
2023-04-23T19:18:33.070Z,33.73
2023-04-23T19:21:02.620Z,33.96
2023-04-23T19:23:30.601Z,33.91
2023-04-23T19:25:58.556Z,33.86
2023-04-23T19:28:26.661Z,33.82
2023-04-23T19:30:54.614Z,33.99
2023-04-23T19:33:22.568Z,33.72
2023-04-23T19:35:50.946Z,33.62
2023-04-23T19:38:20.246Z,34.06
2023-04-23T19:40:48.227Z,33.57
2023-04-23T19:43:16.165Z,33.94
2023-04-23T19:45:44.124Z,33.90
2023-04-23T19:48:12.213Z,33.68
2023-04-23T19:50:40.178Z,33.63
2023-04-23T19:53:08.187Z,33.95
2023-04-23T19:55:37.550Z,33.90
2023-04-23T19:58:06.666Z,33.90
2023-04-23T20:00:39.310Z,33.80
2023-04-23T20:03:08.226Z,33.93
2023-04-23T20:05:36.362Z,33.76
2023-04-23T20:08:11.385Z,33.86
2023-04-23T20:10:40.888Z,33.95
2023-04-23T20:13:08.948Z,33.89
2023-04-23T20:15:36.952Z,33.71
2023-04-23T20:18:05.126Z,33.99
2023-04-23T20:20:33.989Z,34.06
2023-04-23T20:23:01.967Z,34.09
2023-04-23T20:25:29.990Z,34.05
2023-04-23T20:27:59.378Z,33.80
2023-04-23T20:30:27.330Z,33.98
2023-04-23T20:32:55.402Z,33.96
2023-04-23T20:35:24.555Z,33.76
2023-04-23T20:37:54.488Z,33.80
2023-04-23T20:40:22.809Z,33.96
2023-04-23T20:42:52.759Z,33.79
2023-04-23T20:45:22.487Z,34.03
2023-04-23T20:47:51.373Z,33.83
2023-04-23T20:50:19.525Z,33.91
2023-04-23T20:52:47.607Z,33.70
2023-04-23T20:55:15.658Z,33.96
2023-04-23T20:57:43.660Z,33.78
2023-04-23T21:00:14.280Z,33.77
2023-04-23T21:02:43.685Z,33.70
2023-04-23T21:05:12.251Z,34.03
2023-04-23T21:07:40.625Z,33.98
2023-04-23T21:10:09.133Z,33.68
2023-04-23T21:12:37.229Z,33.92
2023-04-23T21:15:05.990Z,33.76
2023-04-23T21:17:34.000Z,33.51
2023-04-23T21:20:04.904Z,33.80
2023-04-23T21:22:33.010Z,33.80
2023-04-23T21:25:00.990Z,33.64
2023-04-23T21:27:28.946Z,33.88
2023-04-23T21:29:57.624Z,33.92
2023-04-23T21:32:25.671Z,33.85
2023-04-23T21:34:53.780Z,33.96
2023-04-23T21:37:23.320Z,33.78
2023-04-23T21:39:51.313Z,33.98
2023-04-23T21:42:19.283Z,33.83
2023-04-23T21:44:47.202Z,33.93
2023-04-23T21:47:15.539Z,33.58
2023-04-23T21:49:43.872Z,33.64
2023-04-23T21:52:12.183Z,33.67
2023-04-23T21:54:41.558Z,33.80
2023-04-23T21:57:09.573Z,33.79
2023-04-23T21:59:37.550Z,33.85
2023-04-23T22:02:05.733Z,33.93
2023-04-23T22:04:33.966Z,33.93
2023-04-23T22:07:03.522Z,33.49
2023-04-23T22:09:31.592Z,33.49
2023-04-23T22:12:02.785Z,33.79
2023-04-23T22:14:31.160Z,33.74
2023-04-23T22:16:59.545Z,33.81
2023-04-23T22:19:27.645Z,33.66
2023-04-23T22:21:55.764Z,33.90
2023-04-23T22:24:23.845Z,33.66
2023-04-23T22:26:51.858Z,33.77
2023-04-23T22:29:21.329Z,33.53
2023-04-23T22:31:49.330Z,33.67
2023-04-23T22:34:19.378Z,33.90
2023-04-23T22:36:47.563Z,33.82
2023-04-23T22:39:15.470Z,33.75
2023-04-23T22:41:43.562Z,33.71
2023-04-23T22:44:11.568Z,33.81
2023-04-23T22:46:41.000Z,33.93
2023-04-23T22:49:11.172Z,33.78
2023-04-23T22:51:39.723Z,33.79
2023-04-23T22:54:07.789Z,33.58
2023-04-23T22:56:35.893Z,33.79
2023-04-23T22:59:05.042Z,33.76
2023-04-23T23:01:33.237Z,33.92
2023-04-23T23:04:02.647Z,34.18
2023-04-23T23:06:30.636Z,34.10
2023-04-23T23:08:58.750Z,34.23
2023-04-23T23:11:28.728Z,34.13
2023-04-23T23:13:57.358Z,33.96
2023-04-23T23:16:25.640Z,34.22
2023-04-23T23:18:53.983Z,34.14
2023-04-23T23:21:23.463Z,33.85
2023-04-23T23:23:54.516Z,34.22
2023-04-23T23:26:23.997Z,34.20
2023-04-23T23:28:51.921Z,34.08
2023-04-23T23:31:19.937Z,33.93
2023-04-23T23:33:48.013Z,33.89
2023-04-23T23:36:16.051Z,34.01
2023-04-23T23:38:45.471Z,34.11
2023-04-23T23:41:13.477Z,33.81
2023-04-23T23:43:42.924Z,33.91
2023-04-23T23:46:11.255Z,33.79
2023-04-23T23:48:39.287Z,33.77
2023-04-23T23:51:07.401Z,33.87
2023-04-23T23:53:35.278Z,33.87
2023-04-23T23:56:05.094Z,34.00
2023-04-23T23:58:38.041Z,34.14
